sensor_id;sensor_type;location;lat;lon;timestamp;pressure;altitude;pressure_sealevel;temperature;humidity
53719;BME280;39616;48.872;9.390;2023-04-10T00:00:42;98964.91;;;5.90;72.20
53719;BME280;39616;48.872;9.390;2023-04-10T00:03:14;98969.16;;;5.86;72.58
53719;BME280;39616;48.872;9.390;2023-04-10T00:05:46;98968.34;;;5.86;72.09
53719;BME280;39616;48.872;9.390;2023-04-10T00:08:17;98968.84;;;5.82;72.10
53719;BME280;39616;48.872;9.390;2023-04-10T00:10:47;98971.53;;;5.82;72.14
53719;BME280;39616;48.872;9.390;2023-04-10T00:13:17;98956.41;;;5.81;72.13
53719;BME280;39616;48.872;9.390;2023-04-10T00:15:47;98963.69;;;5.81;72.39
53719;BME280;39616;48.872;9.390;2023-04-10T00:18:19;98964.69;;;5.75;72.28
53719;BME280;39616;48.872;9.390;2023-04-10T00:20:49;98963.56;;;5.71;72.20
53719;BME280;39616;48.872;9.390;2023-04-10T00:23:19;98958.09;;;5.66;72.58
53719;BME280;39616;48.872;9.390;2023-04-10T00:25:50;98959.09;;;5.60;72.76
53719;BME280;39616;48.872;9.390;2023-04-10T00:28:20;98956.03;;;5.51;73.34
53719;BME280;39616;48.872;9.390;2023-04-10T00:30:51;98957.59;;;5.47;73.50
53719;BME280;39616;48.872;9.390;2023-04-10T00:33:21;98949.13;;;5.38;73.68
53719;BME280;39616;48.872;9.390;2023-04-10T00:35:51;98949.53;;;5.30;74.02
53719;BME280;39616;48.872;9.390;2023-04-10T00:38:22;98946.72;;;5.20;74.46
53719;BME280;39616;48.872;9.390;2023-04-10T00:40:52;98945.25;;;5.12;74.67
53719;BME280;39616;48.872;9.390;2023-04-10T00:43:22;98946.22;;;5.06;74.95
53719;BME280;39616;48.872;9.390;2023-04-10T00:45:53;98937.50;;;4.99;75.13
53719;BME280;39616;48.872;9.390;2023-04-10T00:48:24;98942.56;;;4.95;75.33
53719;BME280;39616;48.872;9.390;2023-04-10T00:50:54;98942.50;;;4.90;75.45
53719;BME280;39616;48.872;9.390;2023-04-10T00:53:25;98937.59;;;4.87;75.79
53719;BME280;39616;48.872;9.390;2023-04-10T00:55:56;98939.69;;;4.85;76.03
53719;BME280;39616;48.872;9.390;2023-04-10T00:58:26;98931.25;;;4.76;76.28
53719;BME280;39616;48.872;9.390;2023-04-10T01:00:56;98934.66;;;4.72;76.43
53719;BME280;39616;48.872;9.390;2023-04-10T01:03:27;98932.47;;;4.69;76.78
53719;BME280;39616;48.872;9.390;2023-04-10T01:09:00;98938.72;;;4.57;77.41
53719;BME280;39616;48.872;9.390;2023-04-10T01:11:53;98941.88;;;4.54;77.80
53719;BME280;39616;48.872;9.390;2023-04-10T01:15:05;98948.22;;;4.48;77.89
53719;BME280;39616;48.872;9.390;2023-04-10T01:20:29;98944.19;;;4.34;78.80
53719;BME280;39616;48.872;9.390;2023-04-10T01:26:05;98948.00;;;4.21;79.27
53719;BME280;39616;48.872;9.390;2023-04-10T01:28:59;98949.19;;;4.14;79.54
53719;BME280;39616;48.872;9.390;2023-04-10T01:31:51;98958.66;;;4.04;80.14
53719;BME280;39616;48.872;9.390;2023-04-10T01:34:24;98951.81;;;3.97;80.54
53719;BME280;39616;48.872;9.390;2023-04-10T01:37:00;98959.84;;;3.97;80.65
53719;BME280;39616;48.872;9.390;2023-04-10T01:39:35;98962.78;;;3.95;81.02
53719;BME280;39616;48.872;9.390;2023-04-10T01:42:08;98954.13;;;3.93;81.13
53719;BME280;39616;48.872;9.390;2023-04-10T01:44:45;98955.53;;;3.96;81.64
53719;BME280;39616;48.872;9.390;2023-04-10T01:47:17;98958.22;;;3.96;81.26
53719;BME280;39616;48.872;9.390;2023-04-10T01:49:48;98961.38;;;3.93;81.58
53719;BME280;39616;48.872;9.390;2023-04-10T01:52:20;98959.41;;;3.88;81.72
53719;BME280;39616;48.872;9.390;2023-04-10T01:54:52;98956.06;;;3.81;82.26
53719;BME280;39616;48.872;9.390;2023-04-10T01:57:23;98961.66;;;3.68;81.64
53719;BME280;39616;48.872;9.390;2023-04-10T01:59:53;98955.75;;;3.54;82.15
53719;BME280;39616;48.872;9.390;2023-04-10T02:02:24;98960.66;;;3.45;82.34
53719;BME280;39616;48.872;9.390;2023-04-10T02:04:54;98948.53;;;3.31;83.55
53719;BME280;39616;48.872;9.390;2023-04-10T02:07:40;98953.78;;;3.14;84.16
53719;BME280;39616;48.872;9.390;2023-04-10T02:10:36;98947.84;;;3.00;84.83
53719;BME280;39616;48.872;9.390;2023-04-10T02:13:09;98945.59;;;2.97;86.09
53719;BME280;39616;48.872;9.390;2023-04-10T02:15:42;98943.03;;;2.90;85.23
53719;BME280;39616;48.872;9.390;2023-04-10T02:18:17;98945.34;;;2.87;87.09
53719;BME280;39616;48.872;9.390;2023-04-10T02:20:48;98943.63;;;2.81;86.88
53719;BME280;39616;48.872;9.390;2023-04-10T02:23:19;98944.66;;;2.80;88.00
53719;BME280;39616;48.872;9.390;2023-04-10T02:25:49;98941.97;;;2.80;88.71
53719;BME280;39616;48.872;9.390;2023-04-10T02:28:20;98941.16;;;2.79;89.06
53719;BME280;39616;48.872;9.390;2023-04-10T02:30:50;98929.63;;;2.79;89.64
53719;BME280;39616;48.872;9.390;2023-04-10T02:33:31;98926.25;;;2.83;89.81
53719;BME280;39616;48.872;9.390;2023-04-10T02:36:01;98937.69;;;2.90;89.26
53719;BME280;39616;48.872;9.390;2023-04-10T02:38:31;98937.81;;;2.96;88.66
53719;BME280;39616;48.872;9.390;2023-04-10T02:41:01;98933.97;;;3.03;87.71
53719;BME280;39616;48.872;9.390;2023-04-10T02:43:32;98932.69;;;3.06;87.18
53719;BME280;39616;48.872;9.390;2023-04-10T02:46:02;98932.00;;;3.10;86.96
53719;BME280;39616;48.872;9.390;2023-04-10T02:48:33;98935.25;;;3.12;86.26
53719;BME280;39616;48.872;9.390;2023-04-10T02:51:03;98939.09;;;3.17;86.45
53719;BME280;39616;48.872;9.390;2023-04-10T02:53:33;98937.25;;;3.17;86.15
53719;BME280;39616;48.872;9.390;2023-04-10T02:56:04;98949.69;;;3.11;86.08
53719;BME280;39616;48.872;9.390;2023-04-10T02:58:36;98944.34;;;3.11;86.25
53719;BME280;39616;48.872;9.390;2023-04-10T03:01:06;98948.53;;;3.07;86.92
53719;BME280;39616;48.872;9.390;2023-04-10T03:03:36;98947.72;;;3.07;86.77
53719;BME280;39616;48.872;9.390;2023-04-10T03:06:08;98947.72;;;3.07;87.22
53719;BME280;39616;48.872;9.390;2023-04-10T03:08:38;98945.16;;;3.12;87.08
53719;BME280;39616;48.872;9.390;2023-04-10T03:11:08;98946.44;;;3.09;86.92
53719;BME280;39616;48.872;9.390;2023-04-10T03:13:38;98946.66;;;3.08;87.29
53719;BME280;39616;48.872;9.390;2023-04-10T03:16:09;98952.28;;;3.06;86.49
53719;BME280;39616;48.872;9.390;2023-04-10T03:18:39;98949.69;;;3.00;86.69
53719;BME280;39616;48.872;9.390;2023-04-10T03:21:09;98951.66;;;2.93;86.72
53719;BME280;39616;48.872;9.390;2023-04-10T03:23:40;98949.78;;;2.81;87.44
53719;BME280;39616;48.872;9.390;2023-04-10T03:26:10;98955.69;;;2.72;88.05
53719;BME280;39616;48.872;9.390;2023-04-10T03:28:40;98948.97;;;2.69;88.97
53719;BME280;39616;48.872;9.390;2023-04-10T03:31:11;98943.91;;;2.61;89.28
53719;BME280;39616;48.872;9.390;2023-04-10T03:33:41;98944.25;;;2.53;89.61
53719;BME280;39616;48.872;9.390;2023-04-10T03:36:11;98936.09;;;2.48;89.50
53719;BME280;39616;48.872;9.390;2023-04-10T03:38:42;98941.31;;;2.42;91.37
53719;BME280;39616;48.872;9.390;2023-04-10T03:41:12;98935.22;;;2.35;90.85
53719;BME280;39616;48.872;9.390;2023-04-10T03:43:42;98927.91;;;2.31;90.79
53719;BME280;39616;48.872;9.390;2023-04-10T03:46:13;98932.31;;;2.25;91.79
53719;BME280;39616;48.872;9.390;2023-04-10T03:48:43;98927.53;;;2.27;91.34
53719;BME280;39616;48.872;9.390;2023-04-10T03:51:13;98921.38;;;2.27;90.85
53719;BME280;39616;48.872;9.390;2023-04-10T03:53:44;98920.44;;;2.21;90.55
53719;BME280;39616;48.872;9.390;2023-04-10T03:56:15;98918.88;;;2.13;91.78
53719;BME280;39616;48.872;9.390;2023-04-10T03:58:45;98917.25;;;2.12;93.10
53719;BME280;39616;48.872;9.390;2023-04-10T04:01:15;98916.06;;;2.08;93.92
53719;BME280;39616;48.872;9.390;2023-04-10T04:03:46;98923.28;;;2.08;94.44
53719;BME280;39616;48.872;9.390;2023-04-10T04:06:16;98916.97;;;2.02;94.26
53719;BME280;39616;48.872;9.390;2023-04-10T04:08:46;98913.91;;;1.99;94.09
53719;BME280;39616;48.872;9.390;2023-04-10T04:11:16;98914.84;;;1.92;95.32
53719;BME280;39616;48.872;9.390;2023-04-10T04:13:47;98920.63;;;1.89;94.99
53719;BME280;39616;48.872;9.390;2023-04-10T04:16:17;98922.25;;;1.90;96.22
53719;BME280;39616;48.872;9.390;2023-04-10T04:18:47;98918.47;;;1.98;96.27
53719;BME280;39616;48.872;9.390;2023-04-10T04:21:17;98912.22;;;2.04;95.53
53719;BME280;39616;48.872;9.390;2023-04-10T04:23:48;98913.63;;;2.07;93.66
53719;BME280;39616;48.872;9.390;2023-04-10T04:26:18;98915.25;;;2.08;93.66
53719;BME280;39616;48.872;9.390;2023-04-10T04:28:49;98908.56;;;1.99;92.88
53719;BME280;39616;48.872;9.390;2023-04-10T04:31:19;98910.66;;;1.97;93.81
53719;BME280;39616;48.872;9.390;2023-04-10T04:33:49;98915.22;;;1.96;94.48
53719;BME280;39616;48.872;9.390;2023-04-10T04:36:20;98908.69;;;1.92;95.40
53719;BME280;39616;48.872;9.390;2023-04-10T04:38:50;98909.50;;;1.92;95.86
53719;BME280;39616;48.872;9.390;2023-04-10T04:41:20;98912.91;;;2.00;96.09
53719;BME280;39616;48.872;9.390;2023-04-10T04:43:51;98906.63;;;2.06;95.61
53719;BME280;39616;48.872;9.390;2023-04-10T04:46:22;98914.56;;;2.12;95.44
53719;BME280;39616;48.872;9.390;2023-04-10T04:48:52;98914.25;;;2.21;94.67
53719;BME280;39616;48.872;9.390;2023-04-10T04:51:22;98911.47;;;2.27;93.66
53719;BME280;39616;48.872;9.390;2023-04-10T04:53:53;98904.75;;;2.36;93.32
53719;BME280;39616;48.872;9.390;2023-04-10T04:56:23;98908.28;;;2.49;92.79
53719;BME280;39616;48.872;9.390;2023-04-10T04:58:53;98904.00;;;2.59;92.21
53719;BME280;39616;48.872;9.390;2023-04-10T05:01:24;98903.44;;;2.69;91.62
53719;BME280;39616;48.872;9.390;2023-04-10T05:03:54;98907.50;;;2.83;91.10
53719;BME280;39616;48.872;9.390;2023-04-10T05:06:24;98901.13;;;2.96;90.61
53719;BME280;39616;48.872;9.390;2023-04-10T05:08:55;98901.34;;;3.06;89.38
53719;BME280;39616;48.872;9.390;2023-04-10T05:11:25;98902.16;;;3.19;88.96
53719;BME280;39616;48.872;9.390;2023-04-10T05:13:56;98897.25;;;3.27;88.27
53719;BME280;39616;48.872;9.390;2023-04-10T05:16:26;98897.25;;;3.39;87.44
53719;BME280;39616;48.872;9.390;2023-04-10T05:18:56;98893.75;;;3.50;86.73
53719;BME280;39616;48.872;9.390;2023-04-10T05:21:26;98897.56;;;3.54;85.77
53719;BME280;39616;48.872;9.390;2023-04-10T05:23:57;98898.00;;;3.63;85.60
53719;BME280;39616;48.872;9.390;2023-04-10T05:26:27;98894.47;;;3.74;85.43
53719;BME280;39616;48.872;9.390;2023-04-10T05:28:57;98898.19;;;3.85;84.92
53719;BME280;39616;48.872;9.390;2023-04-10T05:31:28;98890.06;;;3.97;84.07
53719;BME280;39616;48.872;9.390;2023-04-10T05:33:58;98891.09;;;4.07;83.72
53719;BME280;39616;48.872;9.390;2023-04-10T05:36:28;98895.25;;;4.15;82.82
53719;BME280;39616;48.872;9.390;2023-04-10T05:38:58;98890.88;;;4.26;82.32
53719;BME280;39616;48.872;9.390;2023-04-10T05:41:29;98896.44;;;4.36;81.96
53719;BME280;39616;48.872;9.390;2023-04-10T05:43:59;98894.50;;;4.48;80.84
53719;BME280;39616;48.872;9.390;2023-04-10T05:46:29;98895.59;;;4.64;80.24
53719;BME280;39616;48.872;9.390;2023-04-10T05:49:00;98886.69;;;4.80;79.56
53719;BME280;39616;48.872;9.390;2023-04-10T05:51:31;98889.38;;;4.97;78.75
53719;BME280;39616;48.872;9.390;2023-04-10T05:54:01;98889.94;;;5.16;77.42
53719;BME280;39616;48.872;9.390;2023-04-10T05:56:31;98882.13;;;5.37;77.13
53719;BME280;39616;48.872;9.390;2023-04-10T05:59:02;98883.22;;;5.57;76.01
53719;BME280;39616;48.872;9.390;2023-04-10T06:01:32;98883.44;;;5.78;75.21
53719;BME280;39616;48.872;9.390;2023-04-10T06:04:02;98888.53;;;5.96;73.93
53719;BME280;39616;48.872;9.390;2023-04-10T06:06:33;98882.28;;;6.18;72.37
53719;BME280;39616;48.872;9.390;2023-04-10T06:09:03;98887.31;;;6.36;71.33
53719;BME280;39616;48.872;9.390;2023-04-10T06:11:34;98887.47;;;6.51;71.53
53719;BME280;39616;48.872;9.390;2023-04-10T06:14:04;98891.13;;;6.67;70.15
53719;BME280;39616;48.872;9.390;2023-04-10T06:16:35;98887.16;;;6.80;69.94
53719;BME280;39616;48.872;9.390;2023-04-10T06:19:05;98882.16;;;6.94;69.15
53719;BME280;39616;48.872;9.390;2023-04-10T06:21:35;98881.44;;;7.09;68.42
53719;BME280;39616;48.872;9.390;2023-04-10T06:24:06;98880.41;;;7.15;67.38
53719;BME280;39616;48.872;9.390;2023-04-10T06:26:36;98878.88;;;7.29;67.37
53719;BME280;39616;48.872;9.390;2023-04-10T06:29:07;98876.19;;;7.34;67.34
53719;BME280;39616;48.872;9.390;2023-04-10T06:31:38;98872.47;;;7.45;66.46
53719;BME280;39616;48.872;9.390;2023-04-10T06:34:08;98868.22;;;7.60;65.98
53719;BME280;39616;48.872;9.390;2023-04-10T06:36:38;98867.94;;;7.56;65.25
53719;BME280;39616;48.872;9.390;2023-04-10T06:39:09;98867.19;;;7.66;65.51
53719;BME280;39616;48.872;9.390;2023-04-10T06:41:39;98872.31;;;7.72;65.18
53719;BME280;39616;48.872;9.390;2023-04-10T06:44:09;98870.47;;;7.78;64.57
53719;BME280;39616;48.872;9.390;2023-04-10T06:46:40;98864.25;;;7.78;63.65
53719;BME280;39616;48.872;9.390;2023-04-10T06:49:10;98866.72;;;7.89;63.66
53719;BME280;39616;48.872;9.390;2023-04-10T06:51:40;98869.19;;;8.01;63.12
53719;BME280;39616;48.872;9.390;2023-04-10T06:54:11;98863.00;;;8.11;62.58
53719;BME280;39616;48.872;9.390;2023-04-10T06:56:41;98865.44;;;8.28;62.51
53719;BME280;39616;48.872;9.390;2023-04-10T06:59:11;98869.81;;;8.49;61.03
53719;BME280;39616;48.872;9.390;2023-04-10T07:01:41;98863.38;;;8.65;61.19
53719;BME280;39616;48.872;9.390;2023-04-10T07:04:12;98863.34;;;8.96;59.91
53719;BME280;39616;48.872;9.390;2023-04-10T07:06:42;98861.44;;;9.07;58.37
53719;BME280;39616;48.872;9.390;2023-04-10T07:09:12;98868.69;;;9.22;58.65
53719;BME280;39616;48.872;9.390;2023-04-10T07:11:43;98870.56;;;9.26;58.04
53719;BME280;39616;48.872;9.390;2023-04-10T07:14:13;98857.06;;;9.26;56.73
53719;BME280;39616;48.872;9.390;2023-04-10T07:16:43;98858.59;;;9.53;57.42
53719;BME280;39616;48.872;9.390;2023-04-10T07:19:14;98864.44;;;9.75;55.90
53719;BME280;39616;48.872;9.390;2023-04-10T07:21:44;98858.44;;;9.88;55.15
53719;BME280;39616;48.872;9.390;2023-04-10T07:24:19;98863.13;;;10.27;54.95
53719;BME280;39616;48.872;9.390;2023-04-10T07:26:49;98854.84;;;10.48;54.05
53719;BME280;39616;48.872;9.390;2023-04-10T07:29:20;98854.34;;;10.75;54.15
53719;BME280;39616;48.872;9.390;2023-04-10T07:31:50;98848.56;;;10.86;52.79
53719;BME280;39616;48.872;9.390;2023-04-10T07:34:20;98859.78;;;11.04;53.02
53719;BME280;39616;48.872;9.390;2023-04-10T07:36:51;98854.66;;;11.02;52.43
53719;BME280;39616;48.872;9.390;2023-04-10T07:39:21;98855.94;;;11.34;52.46
53719;BME280;39616;48.872;9.390;2023-04-10T07:41:54;98856.06;;;11.48;51.42
53719;BME280;39616;48.872;9.390;2023-04-10T07:44:27;98855.44;;;11.56;51.86
53719;BME280;39616;48.872;9.390;2023-04-10T07:46:58;98857.81;;;11.39;51.59
53719;BME280;39616;48.872;9.390;2023-04-10T07:49:28;98856.53;;;11.55;51.11
53719;BME280;39616;48.872;9.390;2023-04-10T07:51:58;98861.56;;;11.43;51.29
53719;BME280;39616;48.872;9.390;2023-04-10T07:54:33;98860.19;;;11.45;51.35
53719;BME280;39616;48.872;9.390;2023-04-10T07:57:03;98847.94;;;11.72;50.95
53719;BME280;39616;48.872;9.390;2023-04-10T07:59:33;98845.25;;;12.28;50.92
53719;BME280;39616;48.872;9.390;2023-04-10T08:02:04;98839.91;;;12.42;50.06
53719;BME280;39616;48.872;9.390;2023-04-10T08:04:34;98843.44;;;12.75;49.77
53719;BME280;39616;48.872;9.390;2023-04-10T08:07:04;98839.47;;;13.00;49.30
53719;BME280;39616;48.872;9.390;2023-04-10T08:09:34;98843.00;;;13.01;48.36
53719;BME280;39616;48.872;9.390;2023-04-10T08:12:05;98835.50;;;13.39;48.13
53719;BME280;39616;48.872;9.390;2023-04-10T08:14:35;98836.50;;;13.57;47.04
53719;BME280;39616;48.872;9.390;2023-04-10T08:17:05;98833.13;;;14.01;46.57
53719;BME280;39616;48.872;9.390;2023-04-10T08:19:36;98834.72;;;14.02;46.33
53719;BME280;39616;48.872;9.390;2023-04-10T08:22:06;98829.22;;;13.94;46.56
53719;BME280;39616;48.872;9.390;2023-04-10T08:24:36;98836.94;;;14.14;46.26
53719;BME280;39616;48.872;9.390;2023-04-10T08:27:07;98833.78;;;14.21;46.41
53719;BME280;39616;48.872;9.390;2023-04-10T08:29:37;98836.81;;;14.19;46.10
53719;BME280;39616;48.872;9.390;2023-04-10T08:32:07;98834.91;;;14.20;44.41
53719;BME280;39616;48.872;9.390;2023-04-10T08:34:38;98829.63;;;14.60;44.48
53719;BME280;39616;48.872;9.390;2023-04-10T08:37:08;98833.50;;;14.45;44.17
53719;BME280;39616;48.872;9.390;2023-04-10T08:39:41;98830.75;;;13.86;44.02
53719;BME280;39616;48.872;9.390;2023-04-10T08:42:11;98835.50;;;14.17;44.41
53719;BME280;39616;48.872;9.390;2023-04-10T08:44:41;98831.00;;;14.35;43.83
53719;BME280;39616;48.872;9.390;2023-04-10T08:47:13;98821.78;;;14.44;42.72
53719;BME280;39616;48.872;9.390;2023-04-10T08:49:53;98818.13;;;14.26;43.17
53719;BME280;39616;48.872;9.390;2023-04-10T08:52:24;98824.84;;;14.07;43.53
53719;BME280;39616;48.872;9.390;2023-04-10T08:54:56;98828.31;;;14.21;43.62
53719;BME280;39616;48.872;9.390;2023-04-10T08:57:27;98821.22;;;14.34;43.78
53719;BME280;39616;48.872;9.390;2023-04-10T08:59:58;98816.41;;;14.76;42.05
53719;BME280;39616;48.872;9.390;2023-04-10T09:02:29;98805.81;;;15.45;41.35
53719;BME280;39616;48.872;9.390;2023-04-10T09:05:01;98804.69;;;15.46;41.53
53719;BME280;39616;48.872;9.390;2023-04-10T09:07:33;98808.94;;;15.21;41.53
53719;BME280;39616;48.872;9.390;2023-04-10T09:10:05;98804.50;;;15.42;41.65
53719;BME280;39616;48.872;9.390;2023-04-10T09:12:43;98801.19;;;15.63;40.69
53719;BME280;39616;48.872;9.390;2023-04-10T09:15:14;98804.22;;;15.53;40.93
53719;BME280;39616;48.872;9.390;2023-04-10T09:20:30;98792.56;;;15.69;39.77
53719;BME280;39616;48.872;9.390;2023-04-10T09:23:18;98794.69;;;15.90;38.44
53719;BME280;39616;48.872;9.390;2023-04-10T09:25:49;98791.69;;;15.60;38.62
53719;BME280;39616;48.872;9.390;2023-04-10T09:28:19;98789.72;;;15.92;38.51
53719;BME280;39616;48.872;9.390;2023-04-10T09:30:49;98787.94;;;16.05;38.08
53719;BME280;39616;48.872;9.390;2023-04-10T09:33:22;98788.88;;;15.83;38.19
53719;BME280;39616;48.872;9.390;2023-04-10T09:35:56;98787.91;;;16.65;38.53
53719;BME280;39616;48.872;9.390;2023-04-10T09:38:27;98782.28;;;16.62;36.89
53719;BME280;39616;48.872;9.390;2023-04-10T09:41:07;98791.47;;;16.23;36.41
53719;BME280;39616;48.872;9.390;2023-04-10T09:43:37;98774.88;;;16.54;36.30
53719;BME280;39616;48.872;9.390;2023-04-10T09:46:08;98774.22;;;16.83;36.54
53719;BME280;39616;48.872;9.390;2023-04-10T09:48:53;98762.97;;;17.14;36.81
53719;BME280;39616;48.872;9.390;2023-04-10T09:51:31;98763.31;;;17.04;36.42
53719;BME280;39616;48.872;9.390;2023-04-10T09:54:02;98752.53;;;17.07;36.16
53719;BME280;39616;48.872;9.390;2023-04-10T09:56:35;98742.41;;;16.99;37.32
53719;BME280;39616;48.872;9.390;2023-04-10T09:59:07;98742.06;;;17.39;36.25
53719;BME280;39616;48.872;9.390;2023-04-10T10:01:38;98730.44;;;17.63;35.82
53719;BME280;39616;48.872;9.390;2023-04-10T10:04:08;98720.56;;;17.50;35.48
53719;BME280;39616;48.872;9.390;2023-04-10T10:06:40;98719.53;;;16.95;35.68
53719;BME280;39616;48.872;9.390;2023-04-10T10:09:10;98718.50;;;17.08;36.15
53719;BME280;39616;48.872;9.390;2023-04-10T10:11:41;98710.84;;;17.73;36.22
53719;BME280;39616;48.872;9.390;2023-04-10T10:14:16;98713.53;;;17.61;35.92
53719;BME280;39616;48.872;9.390;2023-04-10T10:16:49;98708.22;;;17.35;35.46
53719;BME280;39616;48.872;9.390;2023-04-10T10:21:54;98698.22;;;17.60;36.37
53719;BME280;39616;48.872;9.390;2023-04-10T10:24:25;98704.47;;;17.39;35.76
53719;BME280;39616;48.872;9.390;2023-04-10T10:26:57;98703.97;;;17.46;35.99
53719;BME280;39616;48.872;9.390;2023-04-10T10:29:31;98696.31;;;17.31;37.20
53719;BME280;39616;48.872;9.390;2023-04-10T10:32:02;98695.88;;;17.50;35.96
53719;BME280;39616;48.872;9.390;2023-04-10T10:34:34;98691.44;;;17.36;35.37
53719;BME280;39616;48.872;9.390;2023-04-10T10:37:05;98689.78;;;17.44;35.57
53719;BME280;39616;48.872;9.390;2023-04-10T10:40:13;98686.47;;;18.01;36.04
53719;BME280;39616;48.872;9.390;2023-04-10T10:42:59;98678.72;;;18.49;34.34
53719;BME280;39616;48.872;9.390;2023-04-10T10:45:41;98670.78;;;18.80;34.46
53719;BME280;39616;48.872;9.390;2023-04-10T10:48:15;98671.25;;;18.04;32.57
53719;BME280;39616;48.872;9.390;2023-04-10T10:50:50;98667.00;;;18.73;33.75
53719;BME280;39616;48.872;9.390;2023-04-10T10:53:39;98659.69;;;18.89;33.66
53719;BME280;39616;48.872;9.390;2023-04-10T10:58:55;98660.09;;;18.67;33.19
53719;BME280;39616;48.872;9.390;2023-04-10T11:01:29;98658.47;;;18.53;33.66
53719;BME280;39616;48.872;9.390;2023-04-10T11:03:59;98655.03;;;18.11;33.32
53719;BME280;39616;48.872;9.390;2023-04-10T11:06:49;98641.94;;;18.29;32.09
53719;BME280;39616;48.872;9.390;2023-04-10T11:09:57;98645.25;;;18.22;32.73
53719;BME280;39616;48.872;9.390;2023-04-10T11:12:27;98646.38;;;18.09;33.50
53719;BME280;39616;48.872;9.390;2023-04-10T11:15:02;98646.66;;;17.95;33.13
53719;BME280;39616;48.872;9.390;2023-04-10T11:17:51;98642.25;;;17.82;33.98
53719;BME280;39616;48.872;9.390;2023-04-10T11:20:21;98643.38;;;18.02;33.56
53719;BME280;39616;48.872;9.390;2023-04-10T11:25:53;98642.50;;;18.22;32.27
53719;BME280;39616;48.872;9.390;2023-04-10T11:28:37;98636.94;;;18.43;32.47
53719;BME280;39616;48.872;9.390;2023-04-10T11:31:21;98623.41;;;18.71;32.68
53719;BME280;39616;48.872;9.390;2023-04-10T11:36:26;98614.31;;;18.58;32.61
53719;BME280;39616;48.872;9.390;2023-04-10T11:39:02;98618.28;;;18.24;32.89
53719;BME280;39616;48.872;9.390;2023-04-10T11:41:39;98612.84;;;18.61;33.57
53719;BME280;39616;48.872;9.390;2023-04-10T11:44:15;98616.13;;;18.67;32.29
53719;BME280;39616;48.872;9.390;2023-04-10T11:46:46;98615.16;;;18.71;32.52
53719;BME280;39616;48.872;9.390;2023-04-10T11:49:19;98614.91;;;18.64;33.20
53719;BME280;39616;48.872;9.390;2023-04-10T11:51:50;98609.50;;;18.55;32.19
53719;BME280;39616;48.872;9.390;2023-04-10T11:54:25;98619.31;;;18.44;33.26
53719;BME280;39616;48.872;9.390;2023-04-10T11:59:34;98606.31;;;18.66;31.06
53719;BME280;39616;48.872;9.390;2023-04-10T12:02:06;98610.66;;;18.67;30.30
53719;BME280;39616;48.872;9.390;2023-04-10T12:04:37;98605.75;;;18.85;31.47
53719;BME280;39616;48.872;9.390;2023-04-10T12:07:07;98598.66;;;18.96;31.27
53719;BME280;39616;48.872;9.390;2023-04-10T12:09:38;98585.81;;;19.00;30.00
53719;BME280;39616;48.872;9.390;2023-04-10T12:12:09;98571.16;;;18.96;31.21
53719;BME280;39616;48.872;9.390;2023-04-10T12:14:41;98565.44;;;19.13;30.61
53719;BME280;39616;48.872;9.390;2023-04-10T12:17:11;98573.03;;;19.04;30.21
53719;BME280;39616;48.872;9.390;2023-04-10T12:19:42;98556.91;;;18.78;30.73
53719;BME280;39616;48.872;9.390;2023-04-10T12:22:13;98554.34;;;18.85;30.70
53719;BME280;39616;48.872;9.390;2023-04-10T12:24:48;98550.94;;;19.00;31.41
53719;BME280;39616;48.872;9.390;2023-04-10T12:27:19;98546.88;;;19.10;30.26
53719;BME280;39616;48.872;9.390;2023-04-10T12:29:52;98540.84;;;18.92;29.62
53719;BME280;39616;48.872;9.390;2023-04-10T12:32:24;98545.19;;;19.05;30.73
53719;BME280;39616;48.872;9.390;2023-04-10T12:34:57;98546.75;;;19.19;30.23
53719;BME280;39616;48.872;9.390;2023-04-10T12:37:50;98547.34;;;19.12;29.52
53719;BME280;39616;48.872;9.390;2023-04-10T12:40:21;98537.16;;;19.13;30.87
53719;BME280;39616;48.872;9.390;2023-04-10T12:42:51;98535.44;;;18.96;30.02
53719;BME280;39616;48.872;9.390;2023-04-10T12:45:40;98521.97;;;18.66;30.75
53719;BME280;39616;48.872;9.390;2023-04-10T12:48:11;98523.72;;;18.71;29.66
53719;BME280;39616;48.872;9.390;2023-04-10T12:50:45;98520.63;;;18.60;29.52
53719;BME280;39616;48.872;9.390;2023-04-10T12:53:16;98517.97;;;18.76;29.07
53719;BME280;39616;48.872;9.390;2023-04-10T12:56:03;98515.81;;;18.81;28.31
53719;BME280;39616;48.872;9.390;2023-04-10T12:58:35;98515.50;;;18.71;28.86
53719;BME280;39616;48.872;9.390;2023-04-10T13:01:07;98510.09;;;18.74;28.79
53719;BME280;39616;48.872;9.390;2023-04-10T13:03:40;98522.56;;;18.23;27.76
53719;BME280;39616;48.872;9.390;2023-04-10T13:06:11;98512.94;;;18.04;28.55
53719;BME280;39616;48.872;9.390;2023-04-10T13:08:41;98508.38;;;18.21;28.75
53719;BME280;39616;48.872;9.390;2023-04-10T13:11:12;98504.34;;;18.18;28.15
53719;BME280;39616;48.872;9.390;2023-04-10T13:13:42;98503.00;;;18.12;29.00
53719;BME280;39616;48.872;9.390;2023-04-10T13:16:12;98502.66;;;18.14;29.78
53719;BME280;39616;48.872;9.390;2023-04-10T13:18:43;98493.16;;;18.23;29.90
53719;BME280;39616;48.872;9.390;2023-04-10T13:21:13;98489.59;;;18.59;30.62
53719;BME280;39616;48.872;9.390;2023-04-10T13:23:48;98497.06;;;18.71;29.59
53719;BME280;39616;48.872;9.390;2023-04-10T13:26:18;98495.19;;;18.88;29.75
53719;BME280;39616;48.872;9.390;2023-04-10T13:28:48;98486.81;;;18.96;29.95
53719;BME280;39616;48.872;9.390;2023-04-10T13:31:19;98479.13;;;19.02;29.66
53719;BME280;39616;48.872;9.390;2023-04-10T13:33:49;98476.41;;;19.18;30.70
53719;BME280;39616;48.872;9.390;2023-04-10T13:36:20;98469.34;;;18.76;30.44
53719;BME280;39616;48.872;9.390;2023-04-10T13:38:50;98473.78;;;18.69;30.61
53719;BME280;39616;48.872;9.390;2023-04-10T13:41:20;98474.78;;;18.89;30.74
53719;BME280;39616;48.872;9.390;2023-04-10T13:43:52;98475.84;;;18.84;31.04
53719;BME280;39616;48.872;9.390;2023-04-10T13:46:23;98473.78;;;18.81;31.17
53719;BME280;39616;48.872;9.390;2023-04-10T13:48:53;98464.75;;;18.80;29.71
53719;BME280;39616;48.872;9.390;2023-04-10T13:51:23;98468.06;;;18.62;30.02
53719;BME280;39616;48.872;9.390;2023-04-10T13:53:54;98467.81;;;18.67;30.44
53719;BME280;39616;48.872;9.390;2023-04-10T13:56:24;98462.59;;;18.37;31.00